CheckWX is a tool to help pilots better visualize weather data.  It is not intended as a substitute for an official pre-flight weather briefing.

18:18:04 UTC

KHAI METAR
Three Rivers Municipal Dr Haines Airport
Three Rivers, Michigan, USA
Current

23 mins ago

KHAI 241755Z AUTO 02004KT 10SM CLR 15/M02 A2998 RMK AO2 T01451018 10150 20020
Observed
Apr-24 @ 17:55 UTC
Wind
  • 020° at 4 KTS
Visibility
10 SM
Flight Rules
VFR
Cloud Levels
  • Clear skies
Temperature
15°C / 59°F
Dewpoint
-2°C / 28°F
Humidity
31%
Altimeter
29.98" Hg
Pressure
1015.22 hPa
Previous

43 mins ago

KHAI 241735Z AUTO 06004KT 10SM CLR 15/M01 A3000 RMK AO2 T01471010
Observed
Apr-24 @ 17:35 UTC
Wind
  • 060° at 4 KTS
Visibility
10 SM
Flight Rules
VFR
Cloud Levels
  • Clear skies
Temperature
15°C / 59°F
Dewpoint
-1°C / 30°F
Humidity
34%
Altimeter
30" Hg
Pressure
1015.92 hPa
Previous

1 hour ago

KHAI 241716Z AUTO 00000KT 10SM CLR 14/M01 A3002 RMK AO2 T01401013
Observed
Apr-24 @ 17:16 UTC
Visibility
10 SM
Flight Rules
VFR
Cloud Levels
  • Clear skies
Temperature
14°C / 57°F
Dewpoint
-1°C / 30°F
Humidity
36%
Altimeter
30.02" Hg
Pressure
1016.62 hPa